Flag for Switzerland

Past Weather in 47°08'12.4"N, 7°14'48.4"E, Switzerland — Yesterday and Last 2 Weeks

Currently: 39 °F. Clear. (Weather station: Grenchen, Switzerland). See more current weather

Past Weather in 47°08'12.4"N, 7°14'48.4"E — Graph

°F

47°08'12.4"N, 7°14'48.4"E Temperature Yesterday

Maximum temperature yesterday: 48 °F (at 12:20 pm)
Minimum temperature yesterday: 25 °F (at 5:50 am)
Average temperature yesterday: 39 °F

High & Low Weather Summary for the Past Weeks

 TemperatureHumidityPressure
High70 °F (Apr 2, 2:50 pm)100% (Apr 2, 4:20 am)30.36 "Hg (Apr 2, 4:20 am)
Low25 °F (Apr 15, 5:50 am)19% (Apr 9, 3:50 pm)29.80 "Hg (Apr 5, 3:50 pm)
Average43 °F62%30.11 "Hg
* Reported Apr 1 10:20 pm — Apr 16 10:20 pm, 47°08'12.4"N, 7°14'48.4"E. Weather by CustomWeather, © 2021

Note: Actual official high and low records may vary slightly from our data, if they occured in-between our weather recording intervals... More about our weather records

47°08'12.4"N, 7°14'48.4"E Weather History for the Previous 24 Hours

Scroll right to see more
 ConditionsComfort  
Time TempWeatherWind HumidityBarometerVisibility
10:20 pm
Fri, Apr 16
39 °FClear.12 mph61%30.15 "Hg10 mi
9:50 pm43 °FClear.12 mph53%30.12 "Hg10 mi
9:20 pm43 °FClear.12 mph53%30.12 "Hg10 mi
8:50 pm43 °FSunny.13 mph53%30.12 "Hg10 mi
8:20 pm43 °FScattered clouds.12 mph53%30.12 "HgN/A
7:50 pm45 °FScattered clouds.15 mph46%30.09 "HgN/A
7:20 pm46 °FScattered clouds.14 mph43%30.09 "HgN/A
6:50 pm48 °FScattered clouds.15 mph43%30.09 "HgN/A
6:20 pm46 °FScattered clouds.15 mph43%30.09 "HgN/A
5:50 pm48 °FScattered clouds.14 mph40%30.09 "HgN/A
5:20 pm48 °FScattered clouds.10 mph40%30.09 "HgN/A
4:50 pm50 °FScattered clouds.16 mph32%30.09 "HgN/A
4:20 pm52 °FScattered clouds.15 mph32%30.09 "HgN/A
3:50 pm50 °FScattered clouds.15 mph32%30.09 "HgN/A
3:20 pm52 °FScattered clouds.17 mph35%30.09 "HgN/A
2:50 pm48 °FPassing clouds.17 mph37%30.12 "HgN/A
2:20 pm50 °FPassing clouds.15 mph37%30.12 "HgN/A
1:50 pm50 °FPassing clouds.15 mph37%30.12 "HgN/A
1:20 pm48 °FPassing clouds.16 mph40%30.12 "HgN/A
12:50 pm48 °FPassing clouds.15 mph40%30.12 "HgN/A
12:20 pm48 °FPassing clouds.17 mph40%30.12 "HgN/A
11:50 am46 °FPassing clouds.17 mph43%30.15 "HgN/A
11:20 am45 °FPassing clouds.15 mph46%30.15 "HgN/A
10:50 am43 °FPassing clouds.15 mph49%30.15 "HgN/A
10:20 am43 °FPassing clouds.16 mph49%30.15 "HgN/A
9:50 am41 °FPassing clouds.14 mph53%30.15 "HgN/A
9:20 am39 °FSunny.15 mph61%30.15 "Hg10 mi
8:50 am37 °FSunny.14 mph60%30.15 "Hg10 mi
8:20 am36 °FSunny.12 mph65%30.15 "Hg10 mi
7:50 am34 °FSunny.8 mph70%30.15 "Hg10 mi
7:20 am34 °FClear.7 mph70%30.15 "Hg10 mi
6:50 am32 °FChilly.7 mph75%30.12 "HgN/A
6:20 am34 °FClear.9 mph70%30.12 "Hg10 mi
5:50 am34 °FClear.9 mph70%30.12 "Hg10 mi
5:20 am34 °FClear.7 mph70%30.12 "Hg10 mi
4:50 am36 °FClear.10 mph65%30.12 "Hg10 mi
4:20 am34 °FClear.9 mph70%30.12 "Hg10 mi
3:50 am34 °FClear.7 mph70%30.15 "Hg10 mi
3:20 am32 °FClear.8 mph75%30.15 "Hg10 mi
2:50 am36 °FClear.9 mph65%30.15 "Hg10 mi
2:20 am37 °FClear.9 mph60%30.15 "Hg10 mi
1:50 am37 °FClear.9 mph60%30.15 "Hg10 mi
1:20 am37 °FClear.12 mph60%30.18 "Hg10 mi
12:50 am37 °FClear.10 mph60%30.18 "Hg10 mi
12:20 am37 °FClear.10 mph60%30.18 "Hg10 mi
11:50 pm
Thu, Apr 15
39 °FClear.10 mph52%30.18 "Hg10 mi
11:20 pm37 °FClear.9 mph60%30.18 "Hg10 mi
Weather by CustomWeather, © 2021

See weather overview